SBCZ/CZS METAR and TAF weather

Enter ICAO airport designator
Station Type Date Time Source
SBCZ METAR 2020/01/26 18:00 UTC NOAA

SBCZ 261800Z 28004KT 9999 SCT030 32/25 Q1012


Station Type Date Time Source
SBCZ Decoded METAR 2020/01/26 18:00 UTC NOAA

Cruzeiro Do Sul, Brazil (SBCZ) 07-38S 072-40W
Jan 26, 2020 - 01:00 PM EST / 2020.01.26 1800 UTC
Wind: from the W (280 degrees) at 5 MPH (4 KT):0
Visibility: greater than 7 mile(s):0
Sky conditions: partly cloudy
Temperature: 89 F (32 C)
Heat index: 100.6 F (38.1 C):1
Dew Point: 77 F (25 C)
Relative Humidity: 66%
Pressure (altimeter): 29.88 in. Hg (1012 hPa)
ob: SBCZ 261800Z 28004KT 9999 SCT030 32/25 Q1012
cycle: 18

Station Type Date Time Source
SBCZ TAF 2019/09/19 12:09 UTC NOAA

TAF SBCZ 190900Z 1912/2012 27005KT 9999 FEW020 FEW025TCU TX34/1919Z TN23/2006Z PROB30
TEMPO 1912/1916 4000 TSRA BKN020 FEW025CB
BECMG 1916/1918 27005KT
BECMG 1923/2001 00000KT CAVOK PROB30 2006/2012 4000 BR
RMK PGZ

Example: see airport list